Time;durP1;ratioP1;P1;durP2;ratioP2;P2;SDS_P1;SDS_P2;PMS_P1;PMS_P2;Temp;Humidity;BMP_temperature;BMP_pressure;BME280_temperature;BME280_humidity;BME280_pressure;Samples;Min_cycle;Max_cycle;Signal;HPM_P1;HPM_P2
2022/10/23 00:00:04;;;;;;;4.93;1.50;;;14.10;80.90;;;;;;5103237;28;20035;-66
2022/10/23 00:02:30;;;;;;;2.75;1.35;;;14.10;80.90;;;;;;5106489;28;20080;-66
2022/10/23 00:04:55;;;;;;;2.25;1.20;;;14.10;80.90;;;;;;5104044;28;20483;-72
2022/10/23 00:07:21;;;;;;;3.88;1.92;;;14.10;80.90;;;;;;5102545;28;20028;-72
2022/10/23 00:09:47;;;;;;;2.83;1.65;;;14.10;80.90;;;;;;5106635;28;20023;-67
2022/10/23 00:12:12;;;;;;;1.45;1.02;;;14.10;80.90;;;;;;5111675;28;20042;-72
2022/10/23 00:14:38;;;;;;;3.58;1.40;;;14.10;80.80;;;;;;5105257;28;20043;-72
2022/10/23 00:17:04;;;;;;;1.80;1.63;;;14.00;80.70;;;;;;5112637;28;20028;-72
2022/10/23 00:19:29;;;;;;;1.70;1.30;;;14.10;80.70;;;;;;5104893;28;20039;-72
2022/10/23 00:21:55;;;;;;;4.85;1.40;;;14.00;80.60;;;;;;5111029;28;20020;-72
2022/10/23 00:24:20;;;;;;;2.35;1.02;;;14.00;80.60;;;;;;5103127;28;20043;-72
2022/10/23 00:26:49;;;;;;;1.15;0.88;;;14.00;80.60;;;;;;5108557;28;20028;-72
2022/10/23 00:29:15;;;;;;;1.60;1.33;;;14.00;80.60;;;;;;5101057;28;20032;-66
2022/10/23 00:31:40;;;;;;;3.63;1.52;;;14.00;80.70;;;;;;5106501;28;20625;-72
2022/10/23 00:34:07;;;;;;;1.92;1.00;;;13.90;80.60;;;;;;5107456;28;20402;-72
2022/10/23 00:36:33;;;;;;;4.25;1.38;;;13.90;80.60;;;;;;5111064;28;20028;-72
2022/10/23 00:38:59;;;;;;;1.70;1.13;;;13.90;80.50;;;;;;5107486;28;20026;-67
2022/10/23 00:41:27;;;;;;;1.30;1.20;;;13.90;80.50;;;;;;5098276;28;20040;-66
2022/10/23 00:44:16;;;;;;;1.63;1.15;;;13.90;80.50;;;;;;5094021;28;20390;-72
2022/10/23 00:46:43;;;;;;;2.40;1.15;;;13.90;80.50;;;;;;5112042;28;20030;-72
2022/10/23 00:49:09;;;;;;;1.50;1.40;;;13.80;80.60;;;;;;5103560;28;20414;-72
2022/10/23 00:51:39;;;;;;;1.67;1.27;;;13.80;80.60;;;;;;5102614;28;20028;-72
2022/10/23 00:54:07;;;;;;;2.90;1.70;;;13.80;80.70;;;;;;5091257;28;20480;-72
2022/10/23 00:56:36;;;;;;;1.35;1.25;;;13.80;80.70;;;;;;5105351;28;20020;-72
2022/10/23 00:59:02;;;;;;;1.95;1.52;;;13.80;80.70;;;;;;5103061;28;20027;-72
2022/10/23 01:01:27;;;;;;;1.20;1.10;;;13.70;80.60;;;;;;5091454;28;20027;-66
2022/10/23 01:03:53;;;;;;;1.63;1.40;;;13.70;80.60;;;;;;5109884;28;20046;-67
2022/10/23 01:06:48;;;;;;;2.00;1.50;;;13.70;80.70;;;;;;5107825;28;20338;-67
2022/10/23 01:09:40;;;;;;;4.70;1.20;;;13.70;80.60;;;;;;5109747;28;20027;-67
2022/10/23 01:12:11;;;;;;;1.70;1.30;;;13.70;80.90;;;;;;5109594;28;20030;-66
2022/10/23 01:15:04;;;;;;;1.33;1.23;;;13.60;81.20;;;;;;5105211;28;20507;-66
2022/10/23 01:17:42;;;;;;;2.35;1.98;;;13.70;81.20;;;;;;5097867;28;20043;-66
2022/10/23 01:20:13;;;;;;;7.03;1.40;;;13.60;81.30;;;;;;5104513;28;20043;-66
2022/10/23 01:23:00;;;;;;;1.15;1.05;;;13.60;81.30;;;;;;5110204;28;20031;-67
2022/10/23 01:25:44;;;;;;;1.48;1.23;;;13.70;81.20;;;;;;5105690;28;20416;-66
2022/10/23 01:28:15;;;;;;;2.35;1.90;;;13.70;81.00;;;;;;5098137;28;20045;-66
2022/10/23 01:30:43;;;;;;;3.72;1.70;;;13.70;81.20;;;;;;5100129;28;20028;-66
2022/10/23 01:33:14;;;;;;;1.45;1.20;;;13.60;81.10;;;;;;5097490;28;20032;-66
2022/10/23 01:35:59;;;;;;;2.42;1.67;;;13.60;81.10;;;;;;5083207;28;20016;-66
2022/10/23 01:38:27;;;;;;;2.35;1.45;;;13.60;81.00;;;;;;5092063;28;20082;-66
2022/10/23 01:41:01;;;;;;;4.30;1.63;;;13.60;81.10;;;;;;5097273;28;20535;-66
2022/10/23 01:43:43;;;;;;;2.60;1.30;;;13.60;81.20;;;;;;5105537;28;20107;-66
2022/10/23 01:46:13;;;;;;;2.00;1.20;;;13.60;81.10;;;;;;5088553;28;20098;-67
2022/10/23 01:48:42;;;;;;;1.30;1.20;;;13.60;81.10;;;;;;5107697;28;20032;-66
2022/10/23 01:51:09;;;;;;;2.05;1.33;;;13.60;81.20;;;;;;5107588;28;20122;-66
2022/10/23 01:53:40;;;;;;;3.08;1.42;;;13.60;81.10;;;;;;5110715;28;20023;-66
2022/10/23 01:56:10;;;;;;;1.70;1.35;;;13.50;81.10;;;;;;5101916;28;20031;-67
2022/10/23 01:58:37;;;;;;;1.30;1.10;;;13.60;81.10;;;;;;5110048;28;20080;-66
2022/10/23 02:01:05;;;;;;;1.20;1.10;;;13.60;81.20;;;;;;5105192;28;20024;-66
2022/10/23 02:03:34;;;;;;;2.25;1.58;;;13.60;81.10;;;;;;5099695;28;20035;-66
2022/10/23 02:06:00;;;;;;;5.30;1.35;;;13.60;81.10;;;;;;5090931;28;20115;-66
2022/10/23 02:08:26;;;;;;;2.40;1.50;;;13.60;81.00;;;;;;5094132;28;20104;-66
2022/10/23 02:11:12;;;;;;;4.97;1.10;;;13.60;81.00;;;;;;5101716;28;20024;-66
2022/10/23 02:14:18;;;;;;;1.38;1.20;;;13.60;80.90;;;;;;5107969;28;20439;-66
2022/10/23 02:16:51;;;;;;;1.75;1.48;;;13.60;80.90;;;;;;5105050;28;20024;-66
2022/10/23 02:19:25;;;;;;;2.70;1.70;;;13.50;81.00;;;;;;5101194;28;20020;-66
2022/10/23 02:22:05;;;;;;;1.85;1.35;;;13.50;81.10;;;;;;5106408;28;20059;-66
2022/10/23 02:24:45;;;;;;;1.75;1.05;;;13.50;81.00;;;;;;5092597;28;20114;-66
2022/10/23 02:27:19;;;;;;;2.95;1.92;;;13.50;81.10;;;;;;5077116;28;20034;-73
2022/10/23 02:29:54;;;;;;;2.30;1.40;;;13.50;81.10;;;;;;5104331;28;20019;-72
2022/10/23 02:32:22;;;;;;;1.88;1.23;;;13.50;81.10;;;;;;5103748;28;20046;-72
2022/10/23 02:34:48;;;;;;;3.42;1.35;;;13.50;81.20;;;;;;5103123;28;20015;-72
2022/10/23 02:37:14;;;;;;;1.55;1.30;;;13.50;81.20;;;;;;5087163;28;20039;-72
2022/10/23 02:39:40;;;;;;;2.67;1.48;;;13.50;81.20;;;;;;5105769;28;20028;-72
2022/10/23 02:42:33;;;;;;;4.00;1.52;;;13.40;81.10;;;;;;5110000;28;20024;-72
2022/10/23 02:45:21;;;;;;;4.05;1.98;;;13.40;81.10;;;;;;5106002;28;20028;-73
2022/10/23 02:48:05;;;;;;;3.35;1.65;;;13.40;81.20;;;;;;5104818;28;20024;-73
2022/10/23 02:50:52;;;;;;;2.08;1.70;;;13.40;81.20;;;;;;5110580;28;20401;-73
2022/10/23 02:53:36;;;;;;;2.03;1.48;;;13.40;81.10;;;;;;5108049;28;20081;-67
2022/10/23 02:56:33;;;;;;;4.88;1.30;;;13.30;81.10;;;;;;5107093;28;20049;-66
2022/10/23 02:59:09;;;;;;;1.45;1.10;;;13.30;81.00;;;;;;5109620;28;20100;-66
2022/10/23 03:01:44;;;;;;;2.03;1.10;;;13.30;81.10;;;;;;5114049;28;20020;-66
2022/10/23 03:04:11;;;;;;;2.67;1.75;;;13.30;81.10;;;;;;5102812;28;20039;-66
2022/10/23 03:06:37;;;;;;;1.60;1.40;;;13.30;81.10;;;;;;5102570;28;20039;-66
2022/10/23 03:09:06;;;;;;;2.15;1.52;;;13.30;81.10;;;;;;5099100;28;20039;-66
2022/10/23 03:11:31;;;;;;;3.63;2.40;;;13.20;81.00;;;;;;5111830;28;20012;-66
2022/10/23 03:13:57;;;;;;;6.63;1.85;;;13.30;81.10;;;;;;5110994;28;20039;-66
2022/10/23 03:16:23;;;;;;;1.52;1.25;;;13.30;81.10;;;;;;5095502;28;20047;-66
2022/10/23 03:18:48;;;;;;;2.53;1.67;;;13.20;81.00;;;;;;5109608;28;20390;-66
2022/10/23 03:21:14;;;;;;;3.67;1.27;;;13.20;81.00;;;;;;5097174;28;20032;-67
2022/10/23 03:23:40;;;;;;;2.72;1.50;;;13.20;81.00;;;;;;5110188;28;20110;-73
2022/10/23 03:26:05;;;;;;;3.60;1.80;;;13.20;81.00;;;;;;5103687;28;20115;-73
2022/10/23 03:28:31;;;;;;;3.08;1.65;;;13.20;81.00;;;;;;5099890;28;20030;-73
2022/10/23 03:30:57;;;;;;;2.63;1.70;;;13.20;81.10;;;;;;5095194;28;20036;-73
2022/10/23 03:33:22;;;;;;;2.15;1.30;;;13.20;81.10;;;;;;5099329;28;20407;-73
2022/10/23 03:35:48;;;;;;;1.85;1.40;;;13.20;81.10;;;;;;5095661;28;20036;-73
2022/10/23 03:38:14;;;;;;;1.73;1.40;;;13.20;81.10;;;;;;5093325;28;20077;-73
2022/10/23 03:40:41;;;;;;;2.42;1.60;;;13.20;81.10;;;;;;5111764;28;20020;-73
2022/10/23 03:43:07;;;;;;;1.95;1.70;;;13.20;81.10;;;;;;5102529;28;20059;-73
2022/10/23 03:45:32;;;;;;;3.97;1.70;;;13.20;81.10;;;;;;5110893;28;20047;-73
2022/10/23 03:47:58;;;;;;;1.48;1.38;;;13.20;81.20;;;;;;5102861;28;20031;-73
2022/10/23 03:50:24;;;;;;;1.95;1.50;;;13.20;81.20;;;;;;5108023;28;20048;-73
2022/10/23 03:52:49;;;;;;;2.08;1.85;;;13.20;81.20;;;;;;5105639;28;20102;-73
2022/10/23 03:55:16;;;;;;;2.03;1.35;;;13.30;81.30;;;;;;5113189;28;20212;-73
2022/10/23 03:57:42;;;;;;;2.53;1.27;;;13.20;81.20;;;;;;5105137;28;20028;-72
2022/10/23 04:00:08;;;;;;;2.95;1.58;;;13.20;81.30;;;;;;5112893;28;20053;-66
2022/10/23 04:02:34;;;;;;;2.15;1.33;;;13.30;81.40;;;;;;5103878;28;20561;-66
2022/10/23 04:04:59;;;;;;;2.40;1.63;;;13.30;81.40;;;;;;5107124;28;20164;-66
2022/10/23 04:07:25;;;;;;;2.80;1.00;;;13.30;81.40;;;;;;5101608;28;20047;-66
2022/10/23 04:09:51;;;;;;;1.40;1.15;;;13.30;81.50;;;;;;5104301;28;20031;-73
2022/10/23 04:12:16;;;;;;;3.25;1.92;;;13.30;81.50;;;;;;5102795;28;20024;-73
2022/10/23 04:14:42;;;;;;;1.45;1.35;;;13.30;81.60;;;;;;5109740;28;20023;-73
2022/10/23 04:17:08;;;;;;;3.65;1.90;;;13.30;81.70;;;;;;5084881;28;20166;-73
2022/10/23 04:19:33;;;;;;;1.67;1.35;;;13.30;81.70;;;;;;5077969;28;20060;-73
2022/10/23 04:21:59;;;;;;;1.50;1.33;;;13.30;81.70;;;;;;5092881;28;20031;-73
2022/10/23 04:24:25;;;;;;;2.10;1.40;;;13.30;81.70;;;;;;5089216;28;20600;-73
2022/10/23 04:26:51;;;;;;;1.48;1.05;;;13.30;81.60;;;;;;5091727;28;20076;-73
2022/10/23 04:29:18;;;;;;;3.10;1.98;;;13.30;81.70;;;;;;5090997;28;20032;-73
2022/10/23 04:31:43;;;;;;;2.08;1.15;;;13.30;81.70;;;;;;5091457;28;20036;-73
2022/10/23 04:34:09;;;;;;;2.35;1.60;;;13.30;81.70;;;;;;5092446;28;20028;-73
2022/10/23 04:36:35;;;;;;;2.55;1.48;;;13.30;81.70;;;;;;5090958;28;20086;-73
2022/10/23 04:39:00;;;;;;;1.50;1.00;;;13.40;81.80;;;;;;5091351;28;20032;-73
2022/10/23 04:41:26;;;;;;;1.40;1.00;;;13.40;81.70;;;;;;5091840;28;20028;-73
2022/10/23 04:43:52;;;;;;;1.67;1.15;;;13.40;81.70;;;;;;5088810;28;20032;-73
2022/10/23 04:46:17;;;;;;;2.03;1.40;;;13.50;81.70;;;;;;5094170;28;20045;-73
2022/10/23 04:48:43;;;;;;;3.28;1.58;;;13.50;81.70;;;;;;5087534;28;20044;-73
2022/10/23 04:51:09;;;;;;;1.77;1.05;;;13.50;81.70;;;;;;5110195;28;20444;-73
2022/10/23 04:53:35;;;;;;;2.42;1.65;;;13.50;82.30;;;;;;5098076;28;20067;-66
2022/10/23 04:56:00;;;;;;;1.83;1.52;;;13.50;81.80;;;;;;5087855;28;20131;-73
2022/10/23 04:58:27;;;;;;;1.20;1.15;;;13.50;81.90;;;;;;5100210;28;20028;-73
2022/10/23 05:00:53;;;;;;;2.05;1.17;;;13.50;82.00;;;;;;5093566;28;20032;-73
2022/10/23 05:03:20;;;;;;;1.52;1.30;;;13.50;82.00;;;;;;5111793;28;20076;-73
2022/10/23 05:05:46;;;;;;;3.05;1.70;;;13.60;82.00;;;;;;5102444;27;20024;-66
2022/10/23 05:08:12;;;;;;;1.67;1.27;;;13.60;82.00;;;;;;5109633;28;20499;-73
2022/10/23 05:10:38;;;;;;;2.35;1.33;;;13.60;81.90;;;;;;5097871;28;20111;-73
2022/10/23 05:13:04;;;;;;;1.15;1.08;;;13.60;82.00;;;;;;5097420;28;20116;-66
2022/10/23 05:15:30;;;;;;;1.17;0.93;;;13.70;82.00;;;;;;5109640;28;20028;-66
2022/10/23 05:17:59;;;;;;;2.22;1.17;;;13.70;82.60;;;;;;5109797;28;20028;-67
2022/10/23 05:20:29;;;;;;;2.42;1.50;;;13.70;82.00;;;;;;5108939;28;20391;-66
2022/10/23 05:22:57;;;;;;;1.95;1.17;;;13.70;82.00;;;;;;5111624;28;20020;-66
2022/10/23 05:25:23;;;;;;;1.70;1.10;;;13.70;82.00;;;;;;5108756;28;20023;-66
2022/10/23 05:27:48;;;;;;;1.08;0.98;;;13.70;82.10;;;;;;5110701;28;20038;-73
2022/10/23 05:30:14;;;;;;;1.40;1.23;;;13.80;82.20;;;;;;5103497;28;20368;-73
2022/10/23 05:32:40;;;;;;;1.10;0.95;;;13.80;82.30;;;;;;5101207;28;20076;-73
2022/10/23 05:35:10;;;;;;;1.25;1.15;;;13.80;82.30;;;;;;5084813;28;20571;-73
2022/10/23 05:37:41;;;;;;;2.17;1.08;;;13.80;82.20;;;;;;5087337;28;20054;-73
2022/10/23 05:40:08;;;;;;;1.20;0.80;;;13.80;82.20;;;;;;5107897;28;20031;-73
2022/10/23 05:42:33;;;;;;;1.23;1.02;;;13.80;82.30;;;;;;5110331;28;20383;-73
2022/10/23 05:44:59;;;;;;;4.28;1.65;;;13.80;82.40;;;;;;5103075;28;20036;-73
2022/10/23 05:47:25;;;;;;;0.90;0.80;;;13.80;82.90;;;;;;5108440;28;20023;-73
2022/10/23 05:49:50;;;;;;;3.60;1.42;;;13.90;82.40;;;;;;5103227;28;20040;-73
2022/10/23 05:52:18;;;;;;;5.07;1.17;;;13.90;82.40;;;;;;5099937;28;20020;-73
2022/10/23 05:54:44;;;;;;;2.45;1.23;;;13.90;82.30;;;;;;5106272;28;20447;-73
2022/10/23 05:57:10;;;;;;;2.83;1.00;;;13.90;82.30;;;;;;5101986;28;20055;-73
2022/10/23 05:59:35;;;;;;;1.10;1.00;;;14.00;82.30;;;;;;5098744;28;20108;-73
2022/10/23 06:02:01;;;;;;;1.90;1.10;;;14.10;82.30;;;;;;5111064;28;20360;-73
2022/10/23 06:04:27;;;;;;;1.48;1.27;;;14.10;82.30;;;;;;5098349;28;20032;-73
2022/10/23 06:06:52;;;;;;;1.73;1.13;;;14.10;82.30;;;;;;5110302;28;20407;-73
2022/10/23 06:09:18;;;;;;;1.35;1.25;;;14.10;82.40;;;;;;5098380;28;20043;-73
2022/10/23 06:11:44;;;;;;;1.65;1.42;;;14.20;82.40;;;;;;5089675;28;20020;-74
2022/10/23 06:14:09;;;;;;;1.55;1.23;;;14.20;82.40;;;;;;5096526;28;20609;-73
2022/10/23 06:16:35;;;;;;;0.70;0.70;;;14.20;82.40;;;;;;5107853;28;20050;-73
2022/10/23 06:19:01;;;;;;;1.20;1.10;;;14.30;82.40;;;;;;5102506;28;20379;-73
2022/10/23 06:21:26;;;;;;;3.15;1.00;;;14.30;82.40;;;;;;5105751;28;20349;-73
2022/10/23 06:23:53;;;;;;;1.50;1.23;;;14.30;82.40;;;;;;5097780;28;20623;-73
2022/10/23 06:26:19;;;;;;;1.23;0.85;;;14.30;82.40;;;;;;5096050;28;20028;-73
2022/10/23 06:28:44;;;;;;;1.55;0.88;;;14.30;82.50;;;;;;5109476;28;20022;-66
2022/10/23 06:31:12;;;;;;;1.25;0.90;;;14.40;82.50;;;;;;5096726;28;20033;-66
2022/10/23 06:33:39;;;;;;;2.25;0.93;;;14.40;82.50;;;;;;5107922;28;20080;-66
2022/10/23 06:36:09;;;;;;;1.27;1.10;;;14.40;82.60;;;;;;5100330;28;20028;-66
2022/10/23 06:38:36;;;;;;;2.00;1.25;;;14.40;82.60;;;;;;5105808;28;20134;-66
2022/10/23 06:41:03;;;;;;;1.88;1.27;;;14.50;82.70;;;;;;5101852;28;20043;-66
2022/10/23 06:43:29;;;;;;;2.00;0.90;;;14.50;82.70;;;;;;5104037;28;20088;-66
2022/10/23 06:45:55;;;;;;;1.30;1.10;;;14.50;82.70;;;;;;5094123;28;20035;-66
2022/10/23 06:48:20;;;;;;;1.60;1.20;;;14.50;82.70;;;;;;5101145;28;20433;-66
2022/10/23 06:50:46;;;;;;;1.67;1.58;;;14.50;82.80;;;;;;5094585;28;20036;-66
2022/10/23 06:53:12;;;;;;;3.03;1.55;;;14.50;82.80;;;;;;5089503;28;20390;-66
2022/10/23 06:55:38;;;;;;;5.28;2.03;;;14.50;82.80;;;;;;5080640;28;20495;-66
2022/10/23 06:58:09;;;;;;;3.65;1.67;;;14.50;82.90;;;;;;5096895;28;20022;-66
2022/10/23 07:00:36;;;;;;;2.05;1.42;;;14.60;82.90;;;;;;5110071;28;20067;-66
2022/10/23 07:03:03;;;;;;;3.17;1.52;;;14.60;82.90;;;;;;5100907;28;20016;-66
2022/10/23 07:05:29;;;;;;;2.05;1.20;;;14.60;82.80;;;;;;5109213;28;20036;-66
2022/10/23 07:07:54;;;;;;;2.65;0.90;;;14.70;82.90;;;;;;5103421;28;20479;-67
2022/10/23 07:10:20;;;;;;;2.88;1.08;;;14.70;82.90;;;;;;5100471;28;20028;-67
2022/10/23 07:12:47;;;;;;;2.45;1.48;;;14.70;82.90;;;;;;5102875;28;20028;-67
2022/10/23 07:15:14;;;;;;;0.85;0.85;;;14.70;82.90;;;;;;5102074;28;20475;-66
2022/10/23 07:17:39;;;;;;;2.22;1.50;;;14.70;82.90;;;;;;5101968;28;20479;-67
2022/10/23 07:20:05;;;;;;;1.95;1.42;;;14.80;82.90;;;;;;5104307;28;20024;-74
2022/10/23 07:22:31;;;;;;;4.18;1.70;;;14.80;82.90;;;;;;5098952;28;20394;-67
2022/10/23 07:24:57;;;;;;;3.53;1.38;;;14.80;82.90;;;;;;5094666;28;20035;-66
2022/10/23 07:27:22;;;;;;;1.42;1.05;;;14.80;82.90;;;;;;5087494;28;20593;-66
2022/10/23 07:29:51;;;;;;;1.75;1.45;;;14.80;82.90;;;;;;5096256;28;20103;-66
2022/10/23 07:32:17;;;;;;;3.88;1.55;;;14.90;83.00;;;;;;5096219;28;20085;-66
2022/10/23 07:34:43;;;;;;;3.55;1.63;;;14.90;83.00;;;;;;5101412;28;20027;-66
2022/10/23 07:37:09;;;;;;;3.15;1.60;;;14.90;83.00;;;;;;5108110;28;20431;-66
2022/10/23 07:39:34;;;;;;;2.55;1.70;;;14.90;83.00;;;;;;5102076;28;20036;-66
2022/10/23 07:42:00;;;;;;;2.35;1.60;;;14.90;83.10;;;;;;5108190;28;20032;-66
2022/10/23 07:44:26;;;;;;;2.90;1.67;;;14.90;83.70;;;;;;5091690;28;20483;-67
2022/10/23 07:46:51;;;;;;;4.40;1.55;;;15.00;83.20;;;;;;5094205;28;20040;-72
2022/10/23 07:49:17;;;;;;;1.63;1.23;;;15.00;83.10;;;;;;5108879;28;20059;-72
2022/10/23 07:51:43;;;;;;;1.60;1.30;;;15.00;83.00;;;;;;5096405;28;20024;-72
2022/10/23 07:54:11;;;;;;;2.78;1.63;;;15.10;83.00;;;;;;5110879;28;21090;-71
2022/10/23 07:56:37;;;;;;;2.97;1.80;;;15.10;83.00;;;;;;5103856;28;20027;-66
2022/10/23 07:59:03;;;;;;;1.85;1.23;;;15.10;83.00;;;;;;5105768;28;20058;-66
2022/10/23 08:01:33;;;;;;;1.88;1.08;;;15.20;83.10;;;;;;5108377;28;20023;-71
2022/10/23 08:03:59;;;;;;;4.15;1.90;;;15.20;83.10;;;;;;5111814;28;20360;-65
2022/10/23 08:06:25;;;;;;;3.60;1.42;;;15.20;83.10;;;;;;5093104;28;20032;-72
2022/10/23 08:08:51;;;;;;;1.52;1.08;;;15.20;83.10;;;;;;5098235;28;20080;-72
2022/10/23 08:11:24;;;;;;;2.80;1.25;;;15.30;83.10;;;;;;5092010;28;20048;-72
2022/10/23 08:13:52;;;;;;;1.75;1.23;;;15.30;83.10;;;;;;5093474;28;20478;-73
2022/10/23 08:16:17;;;;;;;2.45;1.42;;;15.30;83.10;;;;;;5093374;28;20036;-74
2022/10/23 08:18:44;;;;;;;3.80;1.50;;;15.30;83.10;;;;;;5090906;28;20028;-72
2022/10/23 08:21:10;;;;;;;1.08;0.93;;;15.30;83.10;;;;;;5091949;28;20062;-71
2022/10/23 08:23:37;;;;;;;2.33;1.23;;;15.30;83.10;;;;;;5090062;28;20109;-71
2022/10/23 08:26:05;;;;;;;3.58;1.58;;;15.40;83.20;;;;;;5064578;28;20119;-66
2022/10/23 08:28:31;;;;;;;2.47;1.38;;;15.40;83.10;;;;;;5089383;28;20016;-66
2022/10/23 08:30:56;;;;;;;1.13;0.82;;;15.40;83.10;;;;;;5089334;28;20483;-66
2022/10/23 08:33:23;;;;;;;1.58;1.38;;;15.40;83.10;;;;;;5092680;28;20089;-66
2022/10/23 08:35:49;;;;;;;1.95;1.50;;;15.50;83.10;;;;;;5089537;28;20839;-66
2022/10/23 08:38:15;;;;;;;1.30;1.20;;;15.50;83.10;;;;;;5084387;28;20107;-66
2022/10/23 08:40:47;;;;;;;2.22;1.38;;;15.50;83.10;;;;;;5105630;28;20202;-73
2022/10/23 08:43:48;;;;;;;1.80;1.35;;;15.60;83.10;;;;;;5089328;28;20028;-66
2022/10/23 08:46:17;;;;;;;2.35;1.52;;;15.60;83.00;;;;;;5036161;28;20293;-66
2022/10/23 08:48:49;;;;;;;1.20;1.10;;;15.60;83.20;;;;;;5089934;28;20085;-66
2022/10/23 08:51:15;;;;;;;1.88;0.88;;;15.70;83.20;;;;;;5093097;28;20025;-73
2022/10/23 08:53:52;;;;;;;2.28;1.90;;;15.70;83.10;;;;;;5082883;28;20020;-73
2022/10/23 08:56:30;;;;;;;3.85;1.42;;;15.80;83.10;;;;;;5090263;28;20111;-73
2022/10/23 08:59:11;;;;;;;4.43;1.38;;;15.90;83.00;;;;;;5079548;28;20028;-73
2022/10/23 09:01:45;;;;;;;1.80;1.17;;;15.90;83.00;;;;;;5076207;28;20035;-73
2022/10/23 09:04:12;;;;;;;2.78;1.35;;;15.90;82.90;;;;;;5090352;28;20400;-73
2022/10/23 09:06:49;;;;;;;2.45;1.38;;;16.00;82.80;;;;;;5088671;28;20093;-73
2022/10/23 09:09:39;;;;;;;1.90;1.45;;;16.00;82.80;;;;;;5104620;28;20026;-73
2022/10/23 09:12:16;;;;;;;1.73;1.40;;;16.00;82.70;;;;;;5087996;28;20035;-73
2022/10/23 09:15:19;;;;;;;6.78;1.80;;;16.00;82.70;;;;;;5086516;28;20063;-66
2022/10/23 09:17:44;;;;;;;4.30;2.10;;;16.10;82.80;;;;;;5089286;28;20028;-66
2022/10/23 09:20:19;;;;;;;1.58;0.98;;;16.10;82.90;;;;;;5095114;28;20034;-66
2022/10/23 09:22:46;;;;;;;1.52;0.93;;;16.10;82.80;;;;;;5088553;28;20495;-67
2022/10/23 09:25:32;;;;;;;2.45;1.50;;;16.20;82.90;;;;;;5087986;28;20030;-66
2022/10/23 09:28:00;;;;;;;3.47;1.40;;;16.20;82.80;;;;;;5087141;28;20040;-67
2022/10/23 09:30:35;;;;;;;1.98;1.70;;;16.20;82.80;;;;;;5091198;28;20016;-66
2022/10/23 09:33:18;;;;;;;3.13;1.52;;;16.20;82.80;;;;;;5080189;28;20029;-67
2022/10/23 09:36:01;;;;;;;;;;;16.20;82.80;;;;;;5073804;28;20475;-67
2022/10/23 09:38:26;;;;;;;;;;;16.20;82.90;;;;;;5087881;28;19908;-67
2022/10/23 09:40:52;;;;;;;3.70;2.20;;;16.10;82.90;;;;;;5089833;28;19913;-66
2022/10/23 09:43:24;;;;;;;1.98;1.55;;;16.20;82.90;;;;;;5090202;28;20047;-67
2022/10/23 09:45:58;;;;;;;;;;;16.20;82.80;;;;;;5095839;28;20359;-66
2022/10/23 09:48:23;;;;;;;1.85;1.38;;;16.20;82.80;;;;;;5095405;28;19908;-67
2022/10/23 09:50:54;;;;;;;1.15;0.90;;;16.20;82.90;;;;;;5102596;28;20528;-66
2022/10/23 09:53:26;;;;;;;2.95;1.38;;;16.20;82.90;;;;;;5107235;28;20108;-67
2022/10/23 09:55:57;;;;;;;1.83;1.53;;;16.30;83.00;;;;;;5088062;28;20127;-67
2022/10/23 09:58:33;;;;;;;1.73;1.20;;;16.30;83.00;;;;;;5094597;28;20354;-67
2022/10/23 10:00:59;;;;;;;8.10;1.58;;;16.40;82.90;;;;;;5089180;28;20032;-66
2022/10/23 10:03:25;;;;;;;2.63;1.45;;;16.40;82.80;;;;;;5088953;28;20489;-66
2022/10/23 10:06:02;;;;;;;1.48;0.88;;;16.40;82.80;;;;;;5087348;28;20043;-73
2022/10/23 10:08:38;;;;;;;2.13;1.20;;;16.50;82.80;;;;;;5078483;28;20031;-73
2022/10/23 10:11:40;;;;;;;1.33;1.02;;;16.50;82.80;;;;;;5087038;28;20441;-73
2022/10/23 10:14:18;;;;;;;2.27;1.77;;;16.60;82.90;;;;;;5086357;28;20345;-73
2022/10/23 10:17:09;;;;;;;2.22;1.48;;;16.60;82.90;;;;;;5088346;28;20028;-73
2022/10/23 10:19:41;;;;;;;3.42;1.50;;;16.60;82.90;;;;;;5088035;28;20124;-66
2022/10/23 10:22:24;;;;;;;1.70;1.02;;;16.70;82.90;;;;;;5090001;28;20070;-73
2022/10/23 10:24:55;;;;;;;2.35;1.20;;;16.70;82.80;;;;;;5086595;28;20055;-73
2022/10/23 10:27:32;;;;;;;2.00;0.90;;;16.80;82.80;;;;;;5089499;28;20020;-73
2022/10/23 10:30:21;;;;;;;1.52;1.40;;;16.90;82.70;;;;;;5103301;28;20031;-73
2022/10/23 10:32:50;;;;;;;2.40;1.33;;;16.90;83.20;;;;;;5082218;28;20027;-73
2022/10/23 10:35:27;;;;;;;1.70;1.23;;;17.00;82.60;;;;;;5086737;28;20024;-73
2022/10/23 10:38:10;;;;;;;2.40;0.77;;;17.00;82.50;;;;;;5089458;28;20073;-73
2022/10/23 10:40:44;;;;;;;1.35;1.10;;;17.10;82.50;;;;;;5092973;28;20030;-73
2022/10/23 10:43:47;;;;;;;3.05;1.70;;;17.10;82.50;;;;;;5097033;28;20032;-73
2022/10/23 10:46:22;;;;;;;1.50;1.40;;;17.10;82.40;;;;;;5089503;28;20035;-73
2022/10/23 10:49:09;;;;;;;2.25;1.42;;;17.10;82.40;;;;;;5098085;28;20056;-73
2022/10/23 10:51:59;;;;;;;1.55;1.17;;;17.10;82.50;;;;;;5085611;28;20661;-74
2022/10/23 10:54:47;;;;;;;1.50;1.10;;;17.20;82.40;;;;;;5088553;28;20028;-73
2022/10/23 10:57:27;;;;;;;7.15;1.70;;;17.20;82.40;;;;;;5080133;28;20060;-73
2022/10/23 10:59:56;;;;;;;3.72;1.45;;;17.20;82.40;;;;;;5088245;28;20760;-73
2022/10/23 11:02:45;;;;;;;3.33;1.48;;;17.20;82.40;;;;;;5093697;28;20024;-72
2022/10/23 11:05:29;;;;;;;1.15;1.00;;;17.30;82.30;;;;;;5086497;28;20028;-72
2022/10/23 11:08:21;;;;;;;2.45;0.85;;;17.30;82.20;;;;;;5082789;28;20050;-72
2022/10/23 11:10:52;;;;;;;2.78;0.88;;;17.30;82.10;;;;;;5098932;28;20020;-73
2022/10/23 11:13:33;;;;;;;0.68;0.68;;;17.40;82.10;;;;;;5093347;28;20041;-72
2022/10/23 11:16:16;;;;;;;1.33;0.90;;;17.50;82.10;;;;;;5091168;28;20451;-72
2022/10/23 11:18:45;;;;;;;3.70;1.30;;;17.50;81.90;;;;;;5096642;28;20020;-72
2022/10/23 11:21:31;;;;;;;1.30;0.85;;;17.60;81.90;;;;;;5093260;28;20028;-72
2022/10/23 11:24:18;;;;;;;2.20;1.27;;;17.60;81.80;;;;;;5100942;28;20463;-71
2022/10/23 11:26:51;;;;;;;0.95;0.88;;;17.70;81.80;;;;;;5092460;28;20028;-72
2022/10/23 11:29:31;;;;;;;1.30;1.00;;;17.70;81.80;;;;;;5093006;28;20016;-72
2022/10/23 11:32:24;;;;;;;5.93;1.40;;;17.70;81.70;;;;;;5093104;28;20020;-71
2022/10/23 11:35:32;;;;;;;1.83;1.48;;;17.80;81.60;;;;;;5094104;28;20016;-71
2022/10/23 11:38:25;;;;;;;2.05;1.08;;;18.00;81.30;;;;;;5092551;28;20501;-72
2022/10/23 11:41:00;;;;;;;1.05;0.90;;;18.00;81.10;;;;;;5091901;28;20026;-73
2022/10/23 11:43:48;;;;;;;2.00;1.13;;;18.10;81.00;;;;;;5098509;28;20020;-73
2022/10/23 11:46:20;;;;;;;3.80;1.40;;;18.20;80.80;;;;;;5090834;28;20032;-73
2022/10/23 11:48:46;;;;;;;;;;;18.30;80.70;;;;;;5086332;28;20052;-73
2022/10/23 11:51:32;;;;;;;3.17;1.05;;;18.40;80.50;;;;;;5098943;28;19907;-73
2022/10/23 11:54:26;;;;;;;1.83;1.15;;;18.40;80.40;;;;;;5098765;28;20106;-73
2022/10/23 11:57:08;;;;;;;0.95;0.95;;;18.50;80.30;;;;;;5096814;28;20043;-72
2022/10/23 11:59:50;;;;;;;1.70;1.05;;;18.50;80.20;;;;;;5092936;28;20032;-66
2022/10/23 12:02:40;;;;;;;1.00;0.70;;;18.60;80.10;;;;;;5091917;28;20016;-67
2022/10/23 12:05:28;;;;;;;2.75;1.10;;;18.70;80.00;;;;;;5082036;28;20498;-72
2022/10/23 12:07:56;;;;;;;3.10;1.70;;;18.70;80.00;;;;;;5093033;28;20661;-72
2022/10/23 12:10:54;;;;;;;1.80;1.02;;;18.80;79.70;;;;;;5092018;28;20024;-72
2022/10/23 12:13:38;;;;;;;1.48;0.88;;;18.90;79.60;;;;;;5107330;28;20020;-73
2022/10/23 12:16:06;;;;;;;1.35;1.08;;;19.30;79.10;;;;;;5091013;28;20024;-73
2022/10/23 12:18:32;;;;;;;0.75;0.75;;;19.60;78.40;;;;;;5111181;28;20076;-71
2022/10/23 12:21:03;;;;;;;1.42;1.02;;;19.80;77.80;;;;;;5100774;28;20058;-72
2022/10/23 12:23:40;;;;;;;1.13;1.02;;;20.00;77.30;;;;;;5086306;28;20032;-66
2022/10/23 12:26:50;;;;;;;1.58;1.00;;;20.10;76.90;;;;;;5088626;28;20028;-66
2022/10/23 12:29:41;;;;;;;1.48;1.20;;;20.40;76.50;;;;;;5090801;28;20028;-66
2022/10/23 12:32:37;;;;;;;2.03;1.07;;;20.70;75.30;;;;;;5083157;28;20027;-73
2022/10/23 12:35:22;;;;;;;4.55;1.10;;;20.70;75.10;;;;;;5085784;28;20475;-73
2022/10/23 12:37:54;;;;;;;4.35;0.95;;;20.70;75.00;;;;;;5085228;28;20081;-72
2022/10/23 12:40:20;;;;;;;;;;;20.60;75.10;;;;;;5081243;28;20051;-67
2022/10/23 12:42:52;;;;;;;1.15;0.95;;;20.60;75.40;;;;;;5091863;28;19915;-66
2022/10/23 12:45:19;;;;;;;0.70;0.70;;;20.40;75.70;;;;;;5091169;28;20024;-67
2022/10/23 12:47:47;;;;;;;3.33;1.50;;;20.20;75.90;;;;;;5079336;28;20506;-67
2022/10/23 12:50:18;;;;;;;1.38;0.82;;;20.20;76.00;;;;;;5100283;28;20342;-66
2022/10/23 12:52:55;;;;;;;2.30;1.00;;;20.10;76.20;;;;;;5111006;28;20114;-66
2022/10/23 12:55:23;;;;;;;1.50;1.27;;;20.00;76.10;;;;;;5102932;28;20477;-66
2022/10/23 12:57:49;;;;;;;1.30;0.80;;;20.00;76.70;;;;;;5097073;28;20030;-66
2022/10/23 13:00:19;;;;;;;2.97;1.55;;;19.90;76.20;;;;;;5105858;28;20042;-67
2022/10/23 13:02:44;;;;;;;1.10;1.00;;;19.90;76.30;;;;;;5103226;28;20020;-67
2022/10/23 13:05:17;;;;;;;0.98;0.90;;;19.90;76.30;;;;;;5106583;28;20072;-66
2022/10/23 13:07:47;;;;;;;1.10;1.02;;;19.90;76.30;;;;;;5100566;28;20028;-67
2022/10/23 13:10:14;;;;;;;2.45;1.17;;;19.90;76.10;;;;;;5093098;28;20020;-67